Time;durP1;ratioP1;P1;durP2;ratioP2;P2;SDS_P1;SDS_P2;PMS_P1;PMS_P2;Temp;Humidity;BMP_temperature;BMP_pressure;BME280_temperature;BME280_humidity;BME280_pressure;Samples;Min_cycle;Max_cycle;Signal;HPM_P1;HPM_P2
2023/06/11 00:01:17;;;;;;;0.10;0.10;;;18.60;99.90;;;;;;5008799;28;20104;-73
2023/06/11 00:03:52;;;;;;;0.10;0.10;;;18.60;99.90;;;;;;5004567;28;20057;-73
2023/06/11 00:06:20;;;;;;;0.00;0.00;;;18.60;99.90;;;;;;5005360;28;20187;-72
2023/06/11 00:08:47;;;;;;;0.17;0.17;;;18.50;99.90;;;;;;5006821;28;20104;-72
2023/06/11 00:11:13;;;;;;;0.00;0.00;;;18.50;99.90;;;;;;5003042;28;20041;-73
2023/06/11 00:13:38;;;;;;;0.00;0.00;;;18.40;99.90;;;;;;4990876;28;20086;-72
2023/06/11 00:16:06;;;;;;;0.05;0.03;;;18.40;99.90;;;;;;5005422;28;20096;-72
2023/06/11 00:18:31;;;;;;;0.22;0.17;;;18.40;99.90;;;;;;5006089;28;20042;-72
2023/06/11 00:20:58;;;;;;;0.20;0.20;;;18.30;99.90;;;;;;5006553;28;20461;-72
2023/06/11 00:23:24;;;;;;;0.00;0.00;;;18.30;99.90;;;;;;5005396;28;20038;-73
2023/06/11 00:25:52;;;;;;;0.10;0.10;;;18.30;99.90;;;;;;5005634;28;20509;-72
2023/06/11 00:28:18;;;;;;;2.38;1.42;;;18.30;99.90;;;;;;5005391;28;20047;-72
2023/06/11 00:30:44;;;;;;;0.77;0.60;;;18.30;99.90;;;;;;5006955;28;20087;-73
2023/06/11 00:33:10;;;;;;;0.85;0.50;;;18.30;99.90;;;;;;5005185;28;20046;-73
2023/06/11 00:35:36;;;;;;;1.48;0.82;;;18.30;99.90;;;;;;5007416;28;20033;-72
2023/06/11 00:38:03;;;;;;;1.33;1.20;;;18.30;99.90;;;;;;5006967;28;20041;-72
2023/06/11 00:40:29;;;;;;;1.88;1.20;;;18.30;99.90;;;;;;5005693;28;20048;-72
2023/06/11 00:42:56;;;;;;;0.60;0.50;;;18.40;99.90;;;;;;5004921;28;20057;-72
2023/06/11 00:45:22;;;;;;;1.08;0.77;;;18.40;99.90;;;;;;5008883;28;20152;-72
2023/06/11 00:47:48;;;;;;;0.75;0.50;;;18.40;99.90;;;;;;5005897;28;20485;-72
2023/06/11 00:50:18;;;;;;;0.82;0.68;;;18.50;99.90;;;;;;5006717;28;20054;-72
2023/06/11 00:52:43;;;;;;;4.38;0.45;;;18.60;99.90;;;;;;5002696;28;20147;-72
2023/06/11 00:55:11;;;;;;;0.43;0.20;;;18.70;99.90;;;;;;5005026;28;20080;-72
2023/06/11 00:57:40;;;;;;;0.45;0.43;;;18.70;99.90;;;;;;5004275;28;20428;-72
2023/06/11 01:00:11;;;;;;;0.45;0.40;;;18.80;99.90;;;;;;5006692;28;20050;-73
2023/06/11 01:02:57;;;;;;;1.47;0.97;;;18.70;99.90;;;;;;5003818;28;20053;-72
2023/06/11 01:05:25;;;;;;;0.17;0.17;;;18.70;99.90;;;;;;5007070;28;20292;-72
2023/06/11 01:07:55;;;;;;;3.15;0.65;;;18.80;99.90;;;;;;5003508;28;20042;-72
2023/06/11 01:10:21;;;;;;;1.40;0.70;;;18.70;99.90;;;;;;5007389;28;20046;-72
2023/06/11 01:12:48;;;;;;;0.08;0.08;;;18.70;99.90;;;;;;5002206;28;20103;-72
2023/06/11 01:15:14;;;;;;;0.82;0.52;;;18.70;99.90;;;;;;4992594;28;20030;-72
2023/06/11 01:17:56;;;;;;;0.50;0.45;;;18.70;99.90;;;;;;5006630;28;20058;-72
2023/06/11 01:20:35;;;;;;;0.28;0.20;;;18.60;99.90;;;;;;5005119;28;20084;-72
2023/06/11 01:23:09;;;;;;;0.50;0.38;;;18.60;99.90;;;;;;5005641;28;20053;-73
2023/06/11 01:26:00;;;;;;;0.40;0.20;;;18.60;99.90;;;;;;5005324;28;20494;-72
2023/06/11 01:28:31;;;;;;;0.20;0.20;;;18.60;99.90;;;;;;5004789;28;20095;-72
2023/06/11 01:30:59;;;;;;;0.10;0.10;;;18.60;99.90;;;;;;4991265;28;20497;-72
2023/06/11 01:33:26;;;;;;;1.20;0.80;;;18.60;99.90;;;;;;4987765;28;20045;-73
2023/06/11 01:35:58;;;;;;;0.20;0.10;;;18.60;99.90;;;;;;5005113;28;20046;-73
2023/06/11 01:38:30;;;;;;;1.20;0.45;;;18.50;99.90;;;;;;5007457;28;20046;-72
2023/06/11 01:40:58;;;;;;;0.80;0.68;;;18.50;99.90;;;;;;5007296;28;20053;-73
2023/06/11 01:43:25;;;;;;;0.30;0.20;;;18.60;99.90;;;;;;5003993;28;20073;-73
2023/06/11 01:45:51;;;;;;;0.65;0.65;;;18.50;99.90;;;;;;5007618;28;20595;-73
2023/06/11 01:48:17;;;;;;;0.55;0.25;;;18.50;99.90;;;;;;5000789;28;20103;-73
2023/06/11 01:50:43;;;;;;;0.10;0.10;;;18.40;99.90;;;;;;5007960;28;20042;-72
2023/06/11 01:53:10;;;;;;;2.10;0.70;;;18.50;99.90;;;;;;4998601;28;20034;-72
2023/06/11 01:55:36;;;;;;;1.00;0.35;;;18.40;99.90;;;;;;5001601;28;20034;-72
2023/06/11 01:58:02;;;;;;;1.17;0.50;;;18.40;99.90;;;;;;4987367;28;20518;-73
2023/06/11 02:00:28;;;;;;;1.05;0.30;;;18.40;99.90;;;;;;5007551;28;20045;-72
2023/06/11 02:02:54;;;;;;;0.90;0.57;;;18.40;99.90;;;;;;4990205;28;20486;-72
2023/06/11 02:05:20;;;;;;;0.20;0.20;;;18.30;99.90;;;;;;5006964;28;20048;-73
2023/06/11 02:07:45;;;;;;;0.30;0.22;;;18.30;99.90;;;;;;5004788;28;20034;-72
2023/06/11 02:10:11;;;;;;;0.38;0.38;;;18.30;99.90;;;;;;5003348;28;20564;-72
2023/06/11 02:12:37;;;;;;;0.05;0.05;;;18.30;99.90;;;;;;5005638;28;20073;-72
2023/06/11 02:15:06;;;;;;;0.65;0.57;;;18.30;99.90;;;;;;5005207;28;20121;-72
2023/06/11 02:17:32;;;;;;;0.20;0.20;;;18.30;99.90;;;;;;4988034;28;20050;-73
2023/06/11 02:19:58;;;;;;;0.20;0.10;;;18.30;99.90;;;;;;5001130;28;20137;-73
2023/06/11 02:22:23;;;;;;;0.30;0.20;;;18.30;99.90;;;;;;4990862;28;20443;-73
2023/06/11 02:24:49;;;;;;;0.10;0.10;;;18.20;99.90;;;;;;4998842;28;20089;-73
2023/06/11 02:27:15;;;;;;;0.40;0.30;;;18.20;99.90;;;;;;5005915;28;20069;-72
2023/06/11 02:29:40;;;;;;;0.20;0.20;;;18.20;99.90;;;;;;5002309;28;20052;-72
2023/06/11 02:32:07;;;;;;;0.20;0.17;;;18.20;99.90;;;;;;5005273;28;20038;-72
2023/06/11 02:34:33;;;;;;;4.78;0.47;;;18.20;99.90;;;;;;5003652;28;20034;-72
2023/06/11 02:36:58;;;;;;;1.17;0.30;;;18.20;99.90;;;;;;5006532;28;20042;-72
2023/06/11 02:39:24;;;;;;;0.45;0.45;;;18.20;99.90;;;;;;4988347;28;20041;-73
2023/06/11 02:41:50;;;;;;;0.80;0.32;;;18.20;99.90;;;;;;4987770;28;20457;-73
2023/06/11 02:44:15;;;;;;;0.25;0.25;;;18.20;99.90;;;;;;5005199;28;20479;-73
2023/06/11 02:46:41;;;;;;;0.20;0.20;;;18.10;99.90;;;;;;4988107;28;20081;-73
2023/06/11 02:49:07;;;;;;;0.20;0.13;;;18.10;99.90;;;;;;5005459;28;20478;-73
2023/06/11 02:51:33;;;;;;;2.08;0.65;;;18.10;99.90;;;;;;5004382;28;20125;-72
2023/06/11 02:53:58;;;;;;;0.85;0.38;;;18.00;99.90;;;;;;5000081;28;20125;-73
2023/06/11 02:56:24;;;;;;;0.55;0.30;;;18.00;99.90;;;;;;5005007;28;20037;-73
2023/06/11 02:58:50;;;;;;;0.77;0.60;;;18.00;99.90;;;;;;5006283;28;20121;-73
2023/06/11 03:01:15;;;;;;;0.40;0.30;;;18.00;99.90;;;;;;5003120;28;20060;-73
2023/06/11 03:03:41;;;;;;;1.20;0.40;;;18.00;99.90;;;;;;5003272;28;20059;-73
2023/06/11 03:06:07;;;;;;;0.22;0.22;;;18.00;99.90;;;;;;5003286;28;20104;-73
2023/06/11 03:08:33;;;;;;;0.65;0.55;;;17.90;99.90;;;;;;5004247;28;20077;-73
2023/06/11 03:10:59;;;;;;;0.28;0.20;;;17.90;99.90;;;;;;5001627;28;20076;-73
2023/06/11 03:13:24;;;;;;;0.45;0.43;;;17.90;99.90;;;;;;5000917;28;20035;-73
2023/06/11 03:15:50;;;;;;;0.45;0.20;;;17.80;99.90;;;;;;5004461;28;20038;-73
2023/06/11 03:18:16;;;;;;;0.90;0.45;;;17.80;99.90;;;;;;5001483;28;20112;-73
2023/06/11 03:20:42;;;;;;;0.30;0.22;;;17.80;99.90;;;;;;5003827;28;20042;-73
2023/06/11 03:23:09;;;;;;;0.32;0.22;;;17.80;99.90;;;;;;5005017;28;20200;-73
2023/06/11 03:25:35;;;;;;;0.35;0.15;;;17.80;99.90;;;;;;5004064;28;20116;-73
2023/06/11 03:28:02;;;;;;;0.15;0.10;;;17.70;99.90;;;;;;5000470;28;20125;-73
2023/06/11 03:30:28;;;;;;;0.60;0.40;;;17.70;99.90;;;;;;5005801;28;20096;-73
2023/06/11 03:32:53;;;;;;;0.35;0.25;;;17.70;99.90;;;;;;5004397;28;20046;-73
2023/06/11 03:35:19;;;;;;;0.45;0.30;;;17.70;99.90;;;;;;5001788;28;20042;-73
2023/06/11 03:37:45;;;;;;;0.22;0.15;;;17.70;99.90;;;;;;5004570;28;20042;-73
2023/06/11 03:40:11;;;;;;;1.00;0.20;;;17.60;99.90;;;;;;5005578;28;20057;-73
2023/06/11 03:42:37;;;;;;;0.10;0.10;;;17.60;99.90;;;;;;5006130;28;20103;-73
2023/06/11 03:45:02;;;;;;;0.50;0.30;;;17.60;99.90;;;;;;4987743;28;20456;-73
2023/06/11 03:47:28;;;;;;;0.17;0.10;;;17.60;99.90;;;;;;5006051;28;20045;-73
2023/06/11 03:49:54;;;;;;;1.17;0.50;;;17.60;99.90;;;;;;5001131;28;20054;-73
2023/06/11 03:52:20;;;;;;;0.57;0.55;;;17.50;99.90;;;;;;5003103;28;20141;-73
2023/06/11 03:54:45;;;;;;;0.17;0.17;;;17.50;99.90;;;;;;5001716;28;20046;-73
2023/06/11 03:57:12;;;;;;;0.52;0.47;;;17.50;99.90;;;;;;4999515;28;20034;-73
2023/06/11 03:59:38;;;;;;;0.32;0.32;;;17.50;99.90;;;;;;5006600;28;20418;-72
2023/06/11 04:02:04;;;;;;;1.10;0.47;;;17.50;99.90;;;;;;5007716;28;20041;-73
2023/06/11 04:04:32;;;;;;;1.17;0.63;;;17.50;99.90;;;;;;5005732;28;20038;-73
2023/06/11 04:06:58;;;;;;;0.60;0.38;;;17.50;99.90;;;;;;5008586;28;20038;-72
2023/06/11 04:09:24;;;;;;;0.40;0.40;;;17.60;99.90;;;;;;5007660;28;20065;-72
2023/06/11 04:11:50;;;;;;;0.85;0.75;;;17.60;99.90;;;;;;4991032;28;20121;-72
2023/06/11 04:14:15;;;;;;;0.65;0.50;;;17.60;99.90;;;;;;5006245;28;20153;-72
2023/06/11 04:16:41;;;;;;;1.20;0.45;;;17.60;99.90;;;;;;5007679;28;20442;-72
2023/06/11 04:19:07;;;;;;;0.45;0.45;;;17.60;99.90;;;;;;5006655;28;20343;-72
2023/06/11 04:21:32;;;;;;;0.43;0.30;;;17.70;99.90;;;;;;5008458;28;20048;-73
2023/06/11 04:23:58;;;;;;;0.55;0.40;;;17.70;99.90;;;;;;4990739;28;20100;-73
2023/06/11 04:26:25;;;;;;;0.10;0.10;;;17.70;99.90;;;;;;5008317;28;20046;-74
2023/06/11 04:28:56;;;;;;;1.13;0.65;;;17.80;99.90;;;;;;5006301;28;20046;-73
2023/06/11 04:31:26;;;;;;;0.73;0.25;;;17.80;99.90;;;;;;5002642;28;20053;-73
2023/06/11 04:33:52;;;;;;;0.38;0.30;;;17.90;99.90;;;;;;5003774;28;20056;-73
2023/06/11 04:36:24;;;;;;;0.68;0.60;;;17.90;99.90;;;;;;5004411;28;20041;-73
2023/06/11 04:38:51;;;;;;;2.00;0.57;;;18.00;99.90;;;;;;5006225;28;20054;-73
2023/06/11 04:41:17;;;;;;;0.20;0.13;;;18.00;99.90;;;;;;5003047;28;20050;-74
2023/06/11 04:43:44;;;;;;;0.20;0.20;;;18.10;99.90;;;;;;5003782;28;20112;-73
2023/06/11 04:46:10;;;;;;;0.25;0.25;;;18.10;99.90;;;;;;4991882;28;20046;-74
2023/06/11 04:48:37;;;;;;;0.40;0.40;;;18.20;99.90;;;;;;5002775;28;20034;-73
2023/06/11 04:51:04;;;;;;;0.95;0.90;;;18.30;99.90;;;;;;5005374;28;20131;-74
2023/06/11 04:53:31;;;;;;;0.38;0.28;;;18.30;99.90;;;;;;5005893;28;20044;-73
2023/06/11 04:55:58;;;;;;;1.00;0.60;;;18.40;99.90;;;;;;4986133;28;20038;-74
2023/06/11 04:58:25;;;;;;;0.40;0.40;;;18.50;99.90;;;;;;5002404;28;20130;-73
2023/06/11 05:00:52;;;;;;;0.90;0.40;;;18.60;99.90;;;;;;5005779;28;20042;-73
2023/06/11 05:03:19;;;;;;;0.20;0.20;;;18.70;99.90;;;;;;5005464;28;20580;-73
2023/06/11 05:05:51;;;;;;;2.10;1.05;;;18.70;99.90;;;;;;4991895;28;20170;-73
2023/06/11 05:08:17;;;;;;;0.30;0.30;;;18.90;99.90;;;;;;4999536;28;20421;-74
2023/06/11 05:10:44;;;;;;;0.20;0.20;;;19.00;99.90;;;;;;5005145;28;20048;-73
2023/06/11 05:13:10;;;;;;;0.43;0.28;;;19.20;99.90;;;;;;5006340;28;21033;-73
2023/06/11 05:15:36;;;;;;;0.35;0.28;;;19.50;99.90;;;;;;5004995;28;20037;-73
2023/06/11 05:18:02;;;;;;;0.80;0.65;;;19.70;99.90;;;;;;4990215;28;20465;-73
2023/06/11 05:20:28;;;;;;;0.40;0.30;;;19.70;99.90;;;;;;5005022;28;20435;-73
2023/06/11 05:22:58;;;;;;;1.13;0.43;;;19.60;99.90;;;;;;5021119;28;20038;-73
2023/06/11 05:25:28;;;;;;;0.20;0.20;;;19.60;99.90;;;;;;5005315;28;20450;-73
2023/06/11 05:27:58;;;;;;;3.72;0.57;;;19.60;99.90;;;;;;5003242;28;20465;-74
2023/06/11 05:30:25;;;;;;;0.75;0.75;;;19.60;99.90;;;;;;5006010;28;20046;-74
2023/06/11 05:32:56;;;;;;;0.75;0.63;;;19.60;99.90;;;;;;5004106;28;20100;-74
2023/06/11 05:35:22;;;;;;;0.77;0.30;;;19.70;99.90;;;;;;5004531;28;20044;-74
2023/06/11 05:37:48;;;;;;;0.80;0.47;;;19.70;99.90;;;;;;5005634;28;20034;-74
2023/06/11 05:40:15;;;;;;;2.83;1.23;;;19.80;99.90;;;;;;5006403;28;20049;-74
2023/06/11 05:42:41;;;;;;;0.93;0.77;;;19.80;99.90;;;;;;5007192;28;20343;-74
2023/06/11 05:45:07;;;;;;;4.63;0.60;;;19.90;99.90;;;;;;5005315;28;20046;-74
2023/06/11 05:47:34;;;;;;;0.38;0.32;;;20.00;99.90;;;;;;5006228;28;20046;-80
2023/06/11 05:50:00;;;;;;;1.02;0.35;;;20.10;99.90;;;;;;4988548;28;20046;-81
2023/06/11 05:52:26;;;;;;;0.73;0.47;;;20.20;99.90;;;;;;5007559;28;20041;-82
2023/06/11 05:54:52;;;;;;;0.20;0.20;;;20.30;99.90;;;;;;5006673;28;20041;-80
2023/06/11 05:57:25;;;;;;;0.68;0.38;;;20.30;99.90;;;;;;5005189;28;20469;-81
2023/06/11 05:59:54;;;;;;;0.40;0.40;;;20.40;99.90;;;;;;5007172;28;20049;-80
2023/06/11 06:02:19;;;;;;;0.32;0.25;;;20.50;99.90;;;;;;4989052;28;20042;-83
2023/06/11 06:04:49;;;;;;;0.43;0.43;;;20.60;99.90;;;;;;5005234;28;20125;-82
2023/06/11 06:07:16;;;;;;;3.75;0.52;;;20.70;99.90;;;;;;5006611;28;20132;-82
2023/06/11 06:09:41;;;;;;;1.13;0.57;;;20.80;99.90;;;;;;5002686;28;20113;-82
2023/06/11 06:12:07;;;;;;;1.08;0.80;;;20.90;99.90;;;;;;5003951;28;20130;-81
2023/06/11 06:14:34;;;;;;;0.30;0.30;;;21.10;99.90;;;;;;4989423;28;20048;-81
2023/06/11 06:17:00;;;;;;;1.33;0.73;;;21.20;99.90;;;;;;5004496;28;20072;-82
2023/06/11 06:19:26;;;;;;;0.50;0.47;;;21.30;99.90;;;;;;5005977;28;20148;-83
2023/06/11 06:21:52;;;;;;;15.00;0.95;;;21.40;99.90;;;;;;5005481;28;20045;-81
2023/06/11 06:24:17;;;;;;;0.40;0.40;;;21.40;99.90;;;;;;5007064;28;20076;-81
2023/06/11 06:26:43;;;;;;;0.55;0.40;;;21.50;99.90;;;;;;4989481;28;20472;-83
2023/06/11 06:29:13;;;;;;;0.77;0.30;;;21.60;99.90;;;;;;5003822;28;20033;-82
2023/06/11 06:31:41;;;;;;;0.45;0.45;;;21.60;99.90;;;;;;5006213;28;20037;-82
2023/06/11 06:34:07;;;;;;;0.30;0.30;;;21.70;99.90;;;;;;5004777;28;20251;-82
2023/06/11 06:36:35;;;;;;;0.55;0.30;;;21.90;99.90;;;;;;5001827;28;20041;-83
2023/06/11 06:39:01;;;;;;;2.80;0.85;;;22.00;99.90;;;;;;5018164;28;20041;-79
2023/06/11 06:41:27;;;;;;;1.83;0.73;;;22.10;99.90;;;;;;5003980;28;20041;-82
2023/06/11 06:43:53;;;;;;;0.40;0.20;;;22.20;99.90;;;;;;5003640;28;20038;-83
2023/06/11 06:46:22;;;;;;;0.20;0.20;;;22.20;99.90;;;;;;5001351;28;20048;-85
2023/06/11 06:48:47;;;;;;;1.00;0.40;;;22.30;99.90;;;;;;5008592;28;20049;-81
2023/06/11 06:51:13;;;;;;;4.80;0.85;;;22.30;99.90;;;;;;5005738;28;20390;-81
2023/06/11 06:53:40;;;;;;;1.25;0.40;;;22.40;99.90;;;;;;5004862;28;20042;-81
2023/06/11 06:56:05;;;;;;;2.45;0.98;;;22.50;99.90;;;;;;5002061;28;20040;-79
2023/06/11 06:58:34;;;;;;;3.13;0.77;;;22.60;99.90;;;;;;5005450;28;20121;-81
2023/06/11 07:01:00;;;;;;;0.50;0.50;;;22.70;99.90;;;;;;4990580;28;20034;-82
2023/06/11 07:03:26;;;;;;;0.43;0.32;;;22.80;99.90;;;;;;4988336;28;20100;-81
2023/06/11 07:05:51;;;;;;;1.75;0.88;;;23.00;99.90;;;;;;5006931;28;20306;-81
2023/06/11 07:08:18;;;;;;;1.23;0.45;;;23.10;99.90;;;;;;5006467;28;20052;-83
2023/06/11 07:10:53;;;;;;;0.35;0.32;;;23.20;99.90;;;;;;5005651;28;20046;-82
2023/06/11 07:13:19;;;;;;;0.30;0.22;;;23.30;99.90;;;;;;5005581;28;20029;-84
2023/06/11 07:15:45;;;;;;;1.20;0.35;;;23.40;99.90;;;;;;5005459;28;20120;-83
2023/06/11 07:18:11;;;;;;;3.72;1.58;;;23.40;99.90;;;;;;4989216;28;20133;-82
2023/06/11 07:20:39;;;;;;;0.98;0.75;;;23.50;99.90;;;;;;5006834;28;20094;-84
2023/06/11 07:23:05;;;;;;;0.40;0.30;;;23.50;99.90;;;;;;5004821;28;20042;-83
2023/06/11 07:25:31;;;;;;;1.35;0.93;;;23.60;99.90;;;;;;5007897;28;20125;-82
2023/06/11 07:28:01;;;;;;;1.60;0.68;;;23.70;99.90;;;;;;5004314;28;20050;-82
2023/06/11 07:30:31;;;;;;;0.75;0.65;;;23.80;99.90;;;;;;5001860;28;20200;-82
2023/06/11 07:32:59;;;;;;;0.82;0.20;;;23.90;99.90;;;;;;5004850;28;20084;-79
2023/06/11 07:35:26;;;;;;;0.82;0.50;;;24.00;99.90;;;;;;5009007;28;20030;-84
2023/06/11 07:37:53;;;;;;;1.50;1.00;;;24.10;99.90;;;;;;5011406;28;20037;-82
2023/06/11 07:40:19;;;;;;;0.35;0.20;;;24.10;99.90;;;;;;4991395;28;20046;-82
2023/06/11 07:42:50;;;;;;;0.95;0.75;;;24.20;99.90;;;;;;4999746;28;20049;-78
2023/06/11 07:45:20;;;;;;;0.38;0.38;;;24.30;99.90;;;;;;5004658;28;20042;-80
2023/06/11 07:47:48;;;;;;;1.70;0.30;;;24.40;99.90;;;;;;4990044;28;20099;-79
2023/06/11 07:50:19;;;;;;;0.47;0.30;;;24.40;99.90;;;;;;4989880;28;20050;-80
2023/06/11 07:52:48;;;;;;;0.88;0.52;;;24.50;99.90;;;;;;5010564;28;20046;-82
2023/06/11 07:55:16;;;;;;;1.05;0.50;;;24.60;99.90;;;;;;5004188;28;20446;-81
2023/06/11 07:57:42;;;;;;;0.13;0.13;;;24.80;99.90;;;;;;5009981;28;20042;-79
2023/06/11 08:00:12;;;;;;;0.63;0.45;;;24.90;99.90;;;;;;5006544;28;20099;-82
2023/06/11 08:02:42;;;;;;;1.33;0.63;;;25.00;99.90;;;;;;5005426;28;20112;-81
2023/06/11 08:05:10;;;;;;;0.30;0.30;;;25.10;99.90;;;;;;4987056;28;20046;-79
2023/06/11 08:07:35;;;;;;;1.23;0.22;;;25.20;99.90;;;;;;5006874;28;20050;-81
2023/06/11 08:10:01;;;;;;;0.82;0.52;;;25.40;99.90;;;;;;5008212;28;20049;-82
2023/06/11 08:12:27;;;;;;;0.45;0.35;;;25.50;99.90;;;;;;5010492;28;20397;-82
2023/06/11 08:14:53;;;;;;;1.08;0.30;;;25.60;99.90;;;;;;5005739;28;20490;-82
2023/06/11 08:17:19;;;;;;;0.30;0.20;;;25.70;99.90;;;;;;5011066;28;20472;-85
2023/06/11 08:19:44;;;;;;;2.05;0.52;;;25.80;99.70;;;;;;5009002;28;20081;-82
2023/06/11 08:22:11;;;;;;;0.38;0.30;;;25.90;99.90;;;;;;5008968;28;20180;-82
2023/06/11 08:24:37;;;;;;;0.88;0.45;;;26.00;99.90;;;;;;4995067;28;20046;-82
2023/06/11 08:27:03;;;;;;;2.47;1.33;;;26.10;99.60;;;;;;5009118;28;20044;-83
2023/06/11 08:29:28;;;;;;;0.38;0.20;;;26.10;99.50;;;;;;5010241;28;20050;-84
2023/06/11 08:31:54;;;;;;;4.47;1.48;;;26.30;98.60;;;;;;5011031;28;20040;-83
2023/06/11 08:34:20;;;;;;;2.53;0.77;;;26.30;98.20;;;;;;5006010;28;20081;-81
2023/06/11 08:36:46;;;;;;;0.30;0.20;;;26.40;97.70;;;;;;5008185;28;20038;-81
2023/06/11 08:39:11;;;;;;;0.60;0.50;;;26.50;97.80;;;;;;5009437;28;20124;-81
2023/06/11 08:41:37;;;;;;;1.02;0.30;;;26.60;96.80;;;;;;5010278;28;20046;-81
2023/06/11 08:44:03;;;;;;;0.80;0.35;;;26.60;98.30;;;;;;5012510;28;20038;-81
2023/06/11 08:46:35;;;;;;;0.38;0.32;;;26.80;97.00;;;;;;5010896;28;20041;-77
2023/06/11 08:49:07;;;;;;;0.65;0.43;;;27.00;98.40;;;;;;4990738;28;20118;-78
2023/06/11 08:51:37;;;;;;;0.57;0.40;;;27.10;98.60;;;;;;4976739;28;20081;-74
2023/06/11 08:54:06;;;;;;;2.08;0.57;;;27.30;98.50;;;;;;5005316;28;20045;-85
2023/06/11 08:56:32;;;;;;;0.20;0.20;;;27.50;97.70;;;;;;5012429;28;20061;-79
2023/06/11 08:59:00;;;;;;;0.28;0.28;;;27.60;97.30;;;;;;5009075;28;20049;-80
2023/06/11 09:01:26;;;;;;;0.60;0.30;;;27.60;96.50;;;;;;4996695;28;20402;-80
2023/06/11 09:03:52;;;;;;;0.47;0.45;;;27.80;97.50;;;;;;5011116;28;20046;-79
2023/06/11 09:06:18;;;;;;;0.80;0.40;;;27.90;97.50;;;;;;5009060;28;20048;-82
2023/06/11 09:08:58;;;;;;;1.08;0.50;;;27.90;94.90;;;;;;5002548;28;20077;-75
2023/06/11 09:11:31;;;;;;;1.45;0.55;;;27.90;93.20;;;;;;5007793;28;20066;-75
2023/06/11 09:13:56;;;;;;;0.55;0.40;;;27.90;93.30;;;;;;5004543;28;20338;-76
2023/06/11 09:16:22;;;;;;;0.38;0.30;;;28.00;93.00;;;;;;5000518;28;20057;-76
2023/06/11 09:18:48;;;;;;;0.60;0.45;;;28.10;91.60;;;;;;5005897;28;20125;-74
2023/06/11 09:21:13;;;;;;;0.50;0.25;;;28.30;91.90;;;;;;5005341;28;20069;-74
2023/06/11 09:23:39;;;;;;;0.77;0.45;;;28.50;92.60;;;;;;5008686;28;20525;-78
2023/06/11 09:26:05;;;;;;;1.55;0.57;;;28.70;90.90;;;;;;5003554;28;20041;-75
2023/06/11 09:28:32;;;;;;;0.20;0.17;;;28.80;90.50;;;;;;4986014;28;20519;-78
2023/06/11 09:30:59;;;;;;;0.63;0.57;;;28.80;90.40;;;;;;5007296;28;20042;-78
2023/06/11 09:33:27;;;;;;;1.38;0.45;;;28.90;89.00;;;;;;5002571;28;20435;-75
2023/06/11 09:35:52;;;;;;;0.22;0.22;;;29.00;86.10;;;;;;4989176;28;20065;-78
2023/06/11 09:38:20;;;;;;;0.22;0.13;;;29.10;89.80;;;;;;4991093;28;20159;-75
2023/06/11 09:40:50;;;;;;;0.20;0.15;;;29.20;87.90;;;;;;5004682;28;20124;-76
2023/06/11 09:43:19;;;;;;;0.30;0.20;;;29.30;90.10;;;;;;5007121;28;20038;-78
2023/06/11 09:45:45;;;;;;;0.30;0.30;;;29.40;83.70;;;;;;4987691;28;20095;-76
2023/06/11 09:48:14;;;;;;;1.27;0.50;;;29.40;86.40;;;;;;5007202;28;20533;-78
2023/06/11 09:50:41;;;;;;;1.35;0.45;;;29.50;80.90;;;;;;5005774;28;20057;-77
2023/06/11 09:53:10;;;;;;;0.20;0.20;;;29.60;79.00;;;;;;5006206;28;20038;-74
2023/06/11 09:55:38;;;;;;;0.22;0.15;;;29.70;81.10;;;;;;4999615;28;20497;-76
2023/06/11 09:58:04;;;;;;;0.55;0.45;;;29.90;81.80;;;;;;5000931;28;20129;-77
2023/06/11 10:00:30;;;;;;;0.45;0.25;;;30.00;79.00;;;;;;5007167;28;20160;-79
2023/06/11 10:02:57;;;;;;;1.08;0.50;;;30.20;76.30;;;;;;5003617;28;20041;-77
2023/06/11 10:05:23;;;;;;;0.52;0.20;;;30.40;75.20;;;;;;5002978;28;20073;-82
2023/06/11 10:07:58;;;;;;;0.68;0.30;;;30.60;74.50;;;;;;4997603;28;20041;-81
2023/06/11 10:10:26;;;;;;;0.60;0.35;;;30.70;74.40;;;;;;5013340;28;20117;-78
2023/06/11 10:12:53;;;;;;;0.68;0.30;;;30.70;71.10;;;;;;5011136;28;20096;-81
2023/06/11 10:15:22;;;;;;;0.35;0.13;;;30.70;72.50;;;;;;5007368;28;20401;-82
2023/06/11 10:17:54;;;;;;;0.57;0.22;;;30.70;72.80;;;;;;5005796;28;20110;-75
2023/06/11 10:20:28;;;;;;;0.28;0.10;;;30.80;72.60;;;;;;5004935;28;20112;-78
2023/06/11 10:23:10;;;;;;;0.80;0.50;;;30.90;73.50;;;;;;5004662;28;20057;-80
2023/06/11 10:25:41;;;;;;;0.30;0.22;;;31.10;73.50;;;;;;5017851;28;20465;-82
2023/06/11 10:28:11;;;;;;;0.40;0.30;;;31.30;73.50;;;;;;4989082;28;20038;-81
2023/06/11 10:30:37;;;;;;;1.55;0.52;;;31.40;70.60;;;;;;4985485;28;20521;-72
2023/06/11 10:33:03;;;;;;;0.57;0.40;;;31.40;65.70;;;;;;5002541;28;20128;-75
2023/06/11 10:35:36;;;;;;;0.52;0.45;;;31.50;61.90;;;;;;5002951;28;20038;-71
2023/06/11 10:38:07;;;;;;;0.20;0.10;;;31.40;63.90;;;;;;5007734;28;20065;-72
2023/06/11 10:40:37;;;;;;;1.15;0.47;;;31.50;66.70;;;;;;5006483;28;20042;-76
2023/06/11 10:43:15;;;;;;;4.13;0.40;;;31.60;64.30;;;;;;4986256;28;20037;-79
2023/06/11 10:45:41;;;;;;;0.30;0.20;;;31.60;62.90;;;;;;5005341;28;20038;-73
2023/06/11 10:48:07;;;;;;;0.52;0.28;;;31.70;66.10;;;;;;5006788;28;20097;-76
2023/06/11 10:50:33;;;;;;;0.22;0.13;;;31.90;61.50;;;;;;5014284;28;20132;-75
2023/06/11 10:53:09;;;;;;;0.38;0.30;;;31.90;58.00;;;;;;5011678;28;20099;-76
2023/06/11 10:55:40;;;;;;;0.17;0.17;;;31.80;55.50;;;;;;5003657;28;20034;-72
2023/06/11 10:58:06;;;;;;;0.30;0.20;;;31.80;55.50;;;;;;5007978;28;20127;-72
2023/06/11 11:00:37;;;;;;;2.88;0.35;;;31.80;58.90;;;;;;5024801;28;20465;-73
2023/06/11 11:03:04;;;;;;;0.50;0.40;;;32.00;56.80;;;;;;5007395;28;20474;-75
2023/06/11 11:05:30;;;;;;;3.72;0.30;;;32.10;54.90;;;;;;5009521;28;20038;-72
2023/06/11 11:07:59;;;;;;;0.10;0.03;;;32.20;53.80;;;;;;5000254;28;20567;-71
2023/06/11 11:10:26;;;;;;;0.57;0.40;;;32.30;55.10;;;;;;5015042;28;20614;-70
2023/06/11 11:12:53;;;;;;;0.65;0.28;;;32.30;52.20;;;;;;5010572;28;20042;-73
2023/06/11 11:15:19;;;;;;;0.45;0.25;;;32.30;53.90;;;;;;5011847;28;20088;-78
2023/06/11 11:17:46;;;;;;;0.08;0.08;;;32.40;54.70;;;;;;5013492;28;20036;-75
2023/06/11 11:20:17;;;;;;;1.50;0.30;;;32.50;51.40;;;;;;5011425;28;20561;-71
2023/06/11 11:22:55;;;;;;;0.35;0.22;;;32.60;55.70;;;;;;5016314;28;20037;-75
2023/06/11 11:25:28;;;;;;;0.17;0.15;;;32.70;52.40;;;;;;5012400;28;20122;-77
2023/06/11 11:27:54;;;;;;;0.43;0.17;;;32.90;54.40;;;;;;5014058;28;20128;-74
2023/06/11 11:30:20;;;;;;;0.38;0.28;;;32.80;50.40;;;;;;5015103;28;20041;-81
2023/06/11 11:32:46;;;;;;;0.38;0.30;;;32.70;52.20;;;;;;5001105;28;20041;-82
2023/06/11 11:35:14;;;;;;;4.20;0.30;;;32.80;52.40;;;;;;5011991;28;20041;-71
2023/06/11 11:37:40;;;;;;;0.65;0.30;;;32.80;50.90;;;;;;5010676;28;20144;-71
2023/06/11 11:40:07;;;;;;;0.57;0.30;;;32.70;48.80;;;;;;5011784;28;20129;-75
2023/06/11 11:42:54;;;;;;;0.43;0.20;;;32.40;48.60;;;;;;5012443;28;20041;-76
2023/06/11 11:45:29;;;;;;;0.47;0.45;;;32.00;50.30;;;;;;5014165;28;20049;-74
2023/06/11 11:47:55;;;;;;;0.20;0.13;;;31.60;51.70;;;;;;5013935;28;20145;-71
2023/06/11 11:50:27;;;;;;;0.28;0.20;;;31.50;51.90;;;;;;5010538;28;20059;-69
2023/06/11 11:53:13;;;;;;;0.40;0.22;;;31.70;52.90;;;;;;5013171;28;20123;-69
2023/06/11 11:55:44;;;;;;;0.35;0.20;;;31.90;52.90;;;;;;5011153;28;20049;-70
2023/06/11 11:58:12;;;;;;;0.20;0.20;;;32.20;51.40;;;;;;5013155;28;20064;-69
2023/06/11 12:00:58;;;;;;;0.88;0.45;;;32.30;48.50;;;;;;5028712;28;20117;-72
2023/06/11 12:03:26;;;;;;;0.50;0.20;;;32.30;50.30;;;;;;5007788;28;20048;-73
2023/06/11 12:06:00;;;;;;;0.65;0.47;;;32.40;49.90;;;;;;5012373;28;20340;-75
2023/06/11 12:08:27;;;;;;;0.85;0.10;;;32.40;47.80;;;;;;5015014;28;20037;-76
2023/06/11 12:10:53;;;;;;;0.50;0.20;;;32.30;48.50;;;;;;5012016;28;20037;-77
2023/06/11 12:13:18;;;;;;;2.00;0.47;;;32.20;47.50;;;;;;5013558;28;20045;-76
2023/06/11 12:15:44;;;;;;;0.10;0.10;;;32.30;47.80;;;;;;5015486;28;20117;-77
2023/06/11 12:18:10;;;;;;;0.50;0.30;;;32.10;48.60;;;;;;5014578;28;20113;-78
2023/06/11 12:20:36;;;;;;;0.10;0.10;;;32.30;50.60;;;;;;5019371;28;20427;-79
2023/06/11 12:23:03;;;;;;;0.43;0.20;;;32.50;49.80;;;;;;5017322;28;20036;-76
2023/06/11 12:25:30;;;;;;;0.52;0.30;;;32.80;50.20;;;;;;5001294;28;20091;-79
2023/06/11 12:27:56;;;;;;;0.10;0.10;;;32.90;48.60;;;;;;5008626;28;20104;-75
2023/06/11 12:30:22;;;;;;;1.25;0.50;;;32.90;48.00;;;;;;5012738;28;20518;-74
2023/06/11 12:32:48;;;;;;;0.00;0.00;;;32.90;47.60;;;;;;5013343;28;20037;-75
2023/06/11 12:35:14;;;;;;;0.75;0.45;;;32.80;48.20;;;;;;5011784;28;20144;-75
2023/06/11 12:37:40;;;;;;;0.95;0.65;;;32.80;47.70;;;;;;5014481;28;20037;-73
2023/06/11 12:40:07;;;;;;;0.45;0.30;;;32.70;46.50;;;;;;5014797;28;20055;-75
2023/06/11 12:42:33;;;;;;;0.30;0.13;;;32.50;46.60;;;;;;5011262;28;20059;-76
2023/06/11 12:45:00;;;;;;;0.20;0.20;;;32.30;47.80;;;;;;5012862;28;20038;-75
2023/06/11 12:47:26;;;;;;;0.45;0.28;;;32.20;48.40;;;;;;5015446;28;20037;-77
2023/06/11 12:49:52;;;;;;;1.85;0.50;;;32.10;47.70;;;;;;5014452;28;20055;-75